Time;durP1;ratioP1;P1;durP2;ratioP2;P2;SDS_P1;SDS_P2;PMS_P1;PMS_P2;Temp;Humidity;BMP_temperature;BMP_pressure;BME280_temperature;BME280_humidity;BME280_pressure;Samples;Min_cycle;Max_cycle;Signal;HPM_P1;HPM_P2
2021/04/16 00:00:53;;;;;;;10.45;5.18;;;2.60;99.90;;;3.67;69.90;101831.44;4834019;29;20041;-84
2021/04/16 00:03:20;;;;;;;8.63;4.63;;;2.60;99.90;;;3.75;69.99;101830.03;4830418;29;20050;-84
2021/04/16 00:05:47;;;;;;;7.75;4.88;;;2.70;99.90;;;3.79;70.08;101831.09;4825141;29;20027;-84
2021/04/16 00:08:34;;;;;;;8.35;5.05;;;2.70;99.90;;;3.86;70.31;101822.50;4834759;29;20571;-84
2021/04/16 00:11:23;;;;;;;9.65;4.95;;;2.80;99.90;;;3.91;69.86;101826.06;4835135;29;20030;-83
2021/04/16 00:13:50;;;;;;;8.05;5.28;;;2.80;99.90;;;3.94;69.78;101816.38;4834220;29;20113;-83
2021/04/16 00:16:26;;;;;;;7.28;4.68;;;2.80;99.90;;;4.01;69.94;101819.66;4812970;29;20260;-84
2021/04/16 00:18:52;;;;;;;7.13;5.00;;;2.90;99.90;;;4.07;69.40;101810.22;4817299;29;20043;-83
2021/04/16 00:21:19;;;;;;;7.38;5.13;;;3.00;99.90;;;4.10;69.42;101810.47;4828179;29;20054;-82
2021/04/16 00:23:45;;;;;;;7.00;4.85;;;3.00;99.90;;;4.13;69.69;101811.84;4827762;29;20467;-84
2021/04/16 00:26:13;;;;;;;9.05;4.72;;;3.00;99.90;;;4.21;69.05;101806.50;4829520;29;20035;-82
2021/04/16 00:28:41;;;;;;;11.50;4.97;;;3.10;99.90;;;4.25;68.82;101806.75;4827916;29;20097;-83
2021/04/16 00:31:19;;;;;;;7.07;3.95;;;3.20;99.90;;;4.29;69.05;101805.09;4825734;29;20445;-83
2021/04/16 00:33:46;;;;;;;7.45;4.40;;;3.20;99.90;;;4.34;69.10;101804.19;4827948;29;20064;-84
2021/04/16 00:36:13;;;;;;;9.80;5.63;;;3.20;99.90;;;4.37;69.25;101800.84;4817714;29;20034;-84
2021/04/16 00:38:40;;;;;;;7.25;4.72;;;3.30;99.90;;;4.36;69.11;101800.06;4827379;29;20171;-84
2021/04/16 00:41:16;;;;;;;9.98;4.78;;;3.30;99.90;;;4.45;68.25;101794.72;4826828;29;20034;-84
2021/04/16 00:43:45;;;;;;;11.63;5.03;;;3.40;99.90;;;4.63;67.60;101799.53;4826824;29;20039;-84
2021/04/16 00:46:31;;;;;;;9.63;4.75;;;3.50;99.90;;;4.66;67.94;101791.47;4809856;29;20030;-83
2021/04/16 00:49:03;;;;;;;8.43;4.57;;;3.50;99.90;;;4.67;68.13;101787.59;4811651;29;20057;-83
2021/04/16 00:51:56;;;;;;;8.93;5.63;;;3.60;99.90;;;4.72;68.06;101789.47;4847052;24;20053;-81
2021/04/16 00:54:43;;;;;;;10.45;5.15;;;3.60;99.90;;;4.71;68.27;101785.06;4826355;29;20450;-81
2021/04/16 00:57:14;;;;;;;7.65;4.55;;;3.60;99.90;;;4.71;67.68;101794.22;4825525;29;20034;-81
2021/04/16 00:59:52;;;;;;;8.18;4.28;;;3.60;99.90;;;4.68;67.79;101794.78;4825125;29;20074;-81
2021/04/16 01:02:19;;;;;;;7.20;4.00;;;3.60;99.90;;;4.70;67.60;101792.53;4825512;29;20026;-82
2021/04/16 01:04:45;;;;;;;6.88;4.38;;;3.60;99.90;;;4.66;68.18;101790.63;4817911;29;20046;-83
2021/04/16 01:07:13;;;;;;;7.07;4.40;;;3.60;99.90;;;4.65;68.37;101786.25;4830647;29;20057;-81
2021/04/16 01:09:39;;;;;;;10.55;5.40;;;3.50;99.90;;;4.69;67.97;101785.34;4807755;29;20061;-83
2021/04/16 01:12:12;;;;;;;9.18;4.60;;;3.60;99.90;;;4.68;68.26;101785.66;4808458;29;20191;-80
2021/04/16 01:14:42;;;;;;;7.05;4.53;;;3.60;99.90;;;4.67;68.24;101781.22;4808369;29;20041;-82
2021/04/16 01:17:13;;;;;;;10.35;4.55;;;3.60;99.90;;;4.62;68.28;101790.38;4823574;29;20073;-80
2021/04/16 01:20:11;;;;;;;9.93;4.90;;;3.50;99.90;;;4.59;68.40;101790.97;4824055;29;20428;-81
2021/04/16 01:22:56;;;;;;;11.68;5.45;;;3.50;99.90;;;4.55;68.85;101775.25;4808725;29;20099;-81
2021/04/16 01:25:24;;;;;;;10.68;5.00;;;3.50;99.90;;;4.53;69.19;101783.84;4808349;29;20038;-80
2021/04/16 01:27:50;;;;;;;7.00;4.97;;;3.50;99.90;;;4.50;69.60;101776.13;4808218;29;20049;-81
2021/04/16 01:30:27;;;;;;;10.35;4.70;;;3.40;99.90;;;4.51;69.55;101776.94;4807923;29;20039;-80
2021/04/16 01:32:55;;;;;;;8.25;4.70;;;3.40;99.90;;;4.49;69.43;101776.44;4825128;29;20045;-80
2021/04/16 01:35:36;;;;;;;6.45;4.65;;;3.40;99.90;;;4.49;69.91;101780.03;4825164;29;20531;-80
2021/04/16 01:38:06;;;;;;;8.05;5.00;;;3.40;99.90;;;4.53;69.83;101778.31;4808267;29;20426;-82
2021/04/16 01:40:32;;;;;;;8.35;4.18;;;3.40;99.90;;;4.53;70.00;101783.00;4824307;29;20041;-81
2021/04/16 01:42:58;;;;;;;10.13;4.72;;;3.40;99.90;;;4.56;70.12;101779.69;4824931;29;20046;-81
2021/04/16 01:45:29;;;;;;;7.88;4.97;;;3.40;99.90;;;4.52;70.45;101779.44;4808359;29;20039;-81
2021/04/16 01:47:59;;;;;;;8.27;5.00;;;3.40;99.90;;;4.48;70.03;101783.06;4824830;29;20038;-80
2021/04/16 01:50:28;;;;;;;8.07;5.13;;;3.40;99.90;;;4.45;70.49;101784.47;4807923;29;20057;-83
2021/04/16 01:52:59;;;;;;;10.10;4.53;;;3.40;99.90;;;4.41;71.26;101782.56;4810683;29;20041;-81
2021/04/16 01:55:25;;;;;;;7.53;4.05;;;3.30;99.90;;;4.38;71.11;101778.44;4812479;29;20046;-81
2021/04/16 01:57:51;;;;;;;7.20;4.72;;;3.30;99.90;;;4.38;71.50;101783.97;4830831;29;20053;-82
2021/04/16 02:00:35;;;;;;;8.27;4.63;;;3.30;99.90;;;4.37;71.67;101782.31;4829675;29;20040;-80
2021/04/16 02:03:03;;;;;;;5.88;4.13;;;3.30;99.90;;;4.40;71.67;101778.16;4827928;29;20046;-82
2021/04/16 02:05:29;;;;;;;8.30;4.38;;;3.30;99.90;;;4.42;71.52;101782.28;4812412;29;20511;-80
2021/04/16 02:07:55;;;;;;;9.00;4.85;;;3.30;99.90;;;4.44;71.27;101769.00;4830763;29;20038;-80
2021/04/16 02:10:23;;;;;;;11.90;5.45;;;3.30;99.90;;;4.47;71.27;101773.09;4845713;29;20052;-80
2021/04/16 02:12:52;;;;;;;9.90;5.57;;;3.30;99.90;;;4.47;71.48;101771.16;4829725;29;20032;-81
2021/04/16 02:15:18;;;;;;;7.75;4.97;;;3.30;99.90;;;4.43;72.13;101772.84;4820887;29;20066;-82
2021/04/16 02:17:44;;;;;;;11.27;4.85;;;3.30;99.90;;;4.43;72.08;101775.63;4826912;29;20034;-82
2021/04/16 02:20:25;;;;;;;8.10;5.25;;;3.30;99.90;;;4.45;71.99;101772.59;4811223;29;20038;-83
2021/04/16 02:22:50;;;;;;;11.38;5.82;;;3.30;99.90;;;4.44;71.84;101765.38;4811440;29;20061;-81
2021/04/16 02:25:17;;;;;;;8.80;5.15;;;3.40;99.90;;;4.43;72.14;101777.59;4828150;29;20046;-81
2021/04/16 02:27:44;;;;;;;9.63;4.57;;;3.30;99.90;;;4.40;72.46;101784.50;4828172;29;20113;-80
2021/04/16 02:30:20;;;;;;;8.02;4.75;;;3.30;99.90;;;4.37;72.63;101784.25;4811534;29;20098;-81
2021/04/16 02:32:47;;;;;;;9.90;5.07;;;3.30;99.90;;;4.34;72.93;101777.38;4828178;29;20049;-82
2021/04/16 02:35:14;;;;;;;12.75;5.47;;;3.20;99.90;;;4.33;72.92;101772.13;4812057;29;20094;-83
2021/04/16 02:37:40;;;;;;;10.80;5.30;;;3.20;99.90;;;4.33;72.62;101770.22;4829727;29;20039;-81
2021/04/16 02:40:12;;;;;;;10.35;5.03;;;3.20;99.90;;;4.35;72.57;101767.97;4812021;29;20490;-81
2021/04/16 02:42:38;;;;;;;8.15;4.55;;;3.30;99.90;;;4.36;72.85;101780.69;4811360;29;20486;-80
2021/04/16 02:45:12;;;;;;;7.43;5.13;;;3.20;99.90;;;4.36;72.79;101774.31;4812886;29;20137;-82
2021/04/16 02:47:39;;;;;;;7.97;4.72;;;3.30;99.90;;;4.34;73.34;101773.78;4812920;29;20121;-82
2021/04/16 02:50:09;;;;;;;7.78;4.38;;;3.20;99.90;;;4.31;73.37;101779.88;4811376;29;20042;-79
2021/04/16 02:52:35;;;;;;;7.50;4.70;;;3.20;99.90;;;4.28;73.91;101769.41;4811055;29;20057;-81
2021/04/16 02:55:03;;;;;;;7.93;4.93;;;3.20;99.90;;;4.25;74.11;101768.03;4811615;29;20042;-81
2021/04/16 02:57:29;;;;;;;8.63;5.60;;;3.10;99.90;;;4.22;74.37;101771.38;4811554;29;20476;-81
2021/04/16 02:59:55;;;;;;;8.88;4.82;;;3.10;99.90;;;4.19;74.54;101772.78;4827308;29;20121;-82
2021/04/16 03:02:21;;;;;;;8.25;4.78;;;3.10;99.90;;;4.19;74.53;101763.66;4811712;29;20042;-82
2021/04/16 03:04:46;;;;;;;9.95;5.53;;;3.10;99.90;;;4.17;74.66;101768.69;4810932;29;20091;-81
2021/04/16 03:07:12;;;;;;;8.88;4.55;;;3.00;99.90;;;4.18;74.79;101770.31;4830794;29;20041;-81
2021/04/16 03:09:38;;;;;;;7.55;4.13;;;3.00;99.90;;;4.18;75.18;101773.06;4810890;29;20172;-82
2021/04/16 03:12:05;;;;;;;8.82;4.97;;;3.10;99.90;;;4.18;75.31;101770.31;4812046;29;20039;-82
2021/04/16 03:14:31;;;;;;;12.25;5.63;;;3.10;99.90;;;4.20;75.38;101770.88;4802925;29;20039;-81
2021/04/16 03:16:57;;;;;;;9.55;5.40;;;3.10;99.90;;;4.23;75.44;101776.66;4796408;29;20039;-80
2021/04/16 03:19:23;;;;;;;10.88;5.70;;;3.10;99.90;;;4.25;75.79;101773.56;4800607;29;20069;-81
2021/04/16 03:21:50;;;;;;;8.30;5.65;;;3.10;99.90;;;4.29;75.71;101771.88;4812009;29;20057;-81
2021/04/16 03:24:19;;;;;;;10.93;5.53;;;3.20;99.90;;;4.37;75.61;101762.13;4800853;29;20072;-82
2021/04/16 03:26:45;;;;;;;12.43;5.70;;;3.20;99.90;;;4.35;75.91;101767.97;4794172;29;20070;-81
2021/04/16 03:29:11;;;;;;;6.53;4.30;;;3.20;99.90;;;4.28;75.93;101772.16;4808494;29;20054;-80
2021/04/16 03:31:37;;;;;;;11.57;6.15;;;3.20;99.90;;;4.20;76.64;101774.47;4809342;29;20087;-79
2021/04/16 03:34:03;;;;;;;8.55;5.28;;;3.10;99.90;;;4.17;76.42;101776.97;4792168;29;20045;-81
2021/04/16 03:36:31;;;;;;;12.50;6.90;;;3.10;99.90;;;4.15;76.61;101781.94;4808787;29;20050;-80
2021/04/16 03:38:58;;;;;;;9.80;5.60;;;3.10;99.90;;;4.14;76.41;101783.88;4809577;29;20035;-81
2021/04/16 03:41:24;;;;;;;10.38;5.97;;;3.10;99.90;;;4.18;76.06;101779.44;4793326;29;20027;-80
2021/04/16 03:43:50;;;;;;;12.40;6.03;;;3.10;99.90;;;4.23;76.01;101784.94;4809731;29;20492;-81
2021/04/16 03:46:16;;;;;;;16.17;6.03;;;3.10;99.90;;;4.21;75.40;101783.56;4793636;29;20042;-80
2021/04/16 03:48:43;;;;;;;9.77;6.45;;;3.10;99.90;;;4.22;75.13;101785.22;4792783;29;20563;-81
2021/04/16 03:51:10;;;;;;;12.90;6.18;;;3.20;99.90;;;4.17;75.52;101776.97;4809513;29;20104;-81
2021/04/16 03:53:40;;;;;;;10.45;5.07;;;3.10;99.90;;;4.12;75.35;101786.13;4792363;29;20031;-81
2021/04/16 03:56:08;;;;;;;10.75;5.57;;;3.10;99.90;;;4.09;75.71;101785.88;4792083;29;20037;-80
2021/04/16 03:58:37;;;;;;;9.55;5.72;;;3.10;99.90;;;4.04;75.36;101783.97;4792481;29;20050;-79
2021/04/16 04:01:07;;;;;;;9.55;5.50;;;3.00;99.90;;;3.99;76.00;101772.09;4808035;29;20039;-83
2021/04/16 04:03:35;;;;;;;14.52;5.75;;;3.00;99.90;;;3.92;75.70;101782.66;4808874;29;20035;-81
2021/04/16 04:06:02;;;;;;;13.27;7.00;;;2.90;99.90;;;3.82;76.55;101788.28;4790898;29;20095;-81
2021/04/16 04:08:28;;;;;;;10.07;5.20;;;2.80;99.90;;;3.73;76.82;101782.50;4807638;29;20055;-81
2021/04/16 04:10:54;;;;;;;10.27;6.28;;;2.70;99.90;;;3.66;77.06;101791.09;4794474;29;20392;-84
2021/04/16 04:13:20;;;;;;;12.70;6.00;;;2.60;99.90;;;3.59;77.25;101784.25;4795219;29;20034;-82
2021/04/16 04:15:46;;;;;;;12.25;5.85;;;2.60;99.90;;;3.51;77.81;101785.66;4799073;29;20045;-83
2021/04/16 04:18:12;;;;;;;9.75;6.88;;;2.50;99.90;;;3.49;78.15;101787.06;4828008;29;20034;-82
2021/04/16 04:20:40;;;;;;;10.70;5.70;;;2.50;99.90;;;3.43;78.20;101779.91;4810680;29;20031;-81
2021/04/16 04:23:09;;;;;;;9.98;5.85;;;2.40;99.90;;;3.37;78.44;101781.03;4810991;29;20030;-82
2021/04/16 04:25:36;;;;;;;10.73;6.10;;;2.30;99.90;;;3.33;78.90;101780.78;4811282;29;20034;-81
2021/04/16 04:28:05;;;;;;;10.95;5.70;;;2.30;99.90;;;3.30;79.01;101773.06;4827919;29;20117;-83
2021/04/16 04:30:37;;;;;;;13.60;7.05;;;2.30;99.90;;;3.30;79.01;101780.50;4811156;29;20045;-82
2021/04/16 04:33:05;;;;;;;11.02;6.35;;;2.30;99.90;;;3.26;79.18;101774.72;4811455;29;20123;-82
2021/04/16 04:35:32;;;;;;;12.68;6.97;;;2.20;99.90;;;3.25;79.52;101778.59;4828494;29;20049;-80
2021/04/16 04:37:59;;;;;;;15.30;6.95;;;2.20;99.90;;;3.26;79.38;101783.00;4828430;29;20479;-83
2021/04/16 04:40:27;;;;;;;12.63;6.20;;;2.20;99.90;;;3.28;79.62;101775.25;4811154;29;20468;-81
2021/04/16 04:42:54;;;;;;;12.07;6.85;;;2.20;99.90;;;3.35;79.73;101774.94;4811702;29;20034;-83
2021/04/16 04:45:23;;;;;;;13.18;7.15;;;2.30;99.90;;;3.37;80.21;101775.53;4828813;29;20186;-83
2021/04/16 04:47:49;;;;;;;16.58;6.47;;;2.30;99.90;;;3.37;79.55;101768.03;4828787;29;20376;-84
2021/04/16 04:50:17;;;;;;;13.82;7.13;;;2.30;99.90;;;3.33;79.75;101775.25;4812447;29;20038;-82
2021/04/16 04:52:43;;;;;;;22.50;8.10;;;2.30;99.90;;;3.28;79.63;101774.44;4829280;29;20046;-83
2021/04/16 04:55:20;;;;;;;17.95;6.28;;;2.20;99.90;;;3.23;79.96;101771.69;4829596;29;20038;-81
2021/04/16 04:57:46;;;;;;;11.48;6.57;;;2.20;99.90;;;3.19;79.92;101772.25;4829496;29;20155;-82
2021/04/16 05:00:16;;;;;;;13.07;7.05;;;2.10;99.90;;;3.16;79.91;101774.75;4812682;29;20064;-80
2021/04/16 05:02:42;;;;;;;15.18;7.50;;;2.10;99.90;;;3.13;80.09;101765.13;4829005;29;20030;-84
2021/04/16 05:05:10;;;;;;;13.05;6.85;;;2.10;99.90;;;3.11;80.66;101772.84;4828788;29;20033;-83
2021/04/16 05:07:36;;;;;;;11.38;6.10;;;2.00;99.90;;;3.14;80.72;101779.75;4811044;29;20503;-81
2021/04/16 05:10:04;;;;;;;14.00;7.13;;;2.10;99.90;;;3.15;80.39;101776.69;4827343;29;20053;-83
2021/04/16 05:12:30;;;;;;;19.80;7.45;;;2.10;99.90;;;3.17;80.49;101782.78;4810803;29;20050;-83
2021/04/16 05:14:56;;;;;;;15.70;6.75;;;2.10;99.90;;;3.25;80.61;101784.09;4826675;29;20038;-82
2021/04/16 05:17:22;;;;;;;15.18;7.43;;;2.10;99.90;;;3.33;80.42;101788.22;4826381;29;20537;-85
2021/04/16 05:19:48;;;;;;;12.40;6.65;;;2.20;99.90;;;3.37;80.67;101773.56;4827023;29;20048;-82
2021/04/16 05:22:15;;;;;;;15.43;6.88;;;2.20;99.90;;;3.46;80.41;101782.94;4828142;29;20043;-80
2021/04/16 05:24:41;;;;;;;13.40;7.07;;;2.30;99.90;;;3.53;80.58;101783.44;4827766;29;20045;-83
2021/04/16 05:27:13;;;;;;;14.00;6.95;;;2.40;99.90;;;3.65;80.58;101789.47;4827400;29;20434;-84
2021/04/16 05:29:39;;;;;;;14.48;6.93;;;2.40;99.90;;;3.79;80.59;101786.06;4831768;29;20042;-81
2021/04/16 05:32:08;;;;;;;18.13;7.95;;;2.60;99.90;;;3.94;80.04;101795.09;4831086;29;20147;-81
2021/04/16 05:34:34;;;;;;;18.90;8.48;;;2.70;99.90;;;4.16;79.70;101789.97;4831155;29;20034;-85
2021/04/16 05:37:01;;;;;;;19.23;7.93;;;2.90;99.90;;;4.38;79.05;101788.69;4837228;29;20186;-84
2021/04/16 05:39:28;;;;;;;14.57;7.88;;;3.10;99.90;;;4.55;78.36;101789.94;4838530;29;20471;-81
2021/04/16 05:41:55;;;;;;;13.27;7.45;;;3.30;99.90;;;4.82;77.96;101792.16;4832391;29;20476;-84
2021/04/16 05:44:21;;;;;;;22.10;9.70;;;3.50;99.90;;;5.03;76.51;101779.75;4831596;29;20069;-85
2021/04/16 05:46:47;;;;;;;23.77;9.65;;;3.70;99.90;;;5.15;75.01;101794.00;4817935;29;20030;-83
2021/04/16 05:49:14;;;;;;;16.13;8.65;;;3.80;99.90;;;5.33;75.67;101784.94;4833634;29;20046;-83
2021/04/16 05:51:40;;;;;;;21.50;9.65;;;3.90;99.90;;;5.63;74.46;101792.03;4833516;29;20630;-81
2021/04/16 05:54:07;;;;;;;17.08;8.20;;;4.10;99.90;;;5.84;73.17;101789.81;4834947;29;20042;-84
2021/04/16 05:56:33;;;;;;;20.30;8.32;;;4.30;99.90;;;6.01;72.42;101795.69;4835571;29;20045;-83
2021/04/16 05:58:59;;;;;;;20.35;7.97;;;4.50;99.90;;;6.13;70.46;101790.50;4837068;29;20090;-82
2021/04/16 06:01:25;;;;;;;18.17;8.40;;;4.60;99.90;;;6.07;70.60;101790.91;4843117;29;20049;-83
2021/04/16 06:03:51;;;;;;;18.20;8.00;;;4.60;99.90;;;5.94;69.83;101800.78;4847046;29;20046;-83
2021/04/16 06:06:18;;;;;;;13.40;7.43;;;4.50;99.90;;;5.80;69.98;101795.13;4826705;29;20030;-82
2021/04/16 06:08:44;;;;;;;15.50;7.85;;;4.40;99.90;;;5.72;70.51;101798.56;4837831;29;20031;-81
2021/04/16 06:11:12;;;;;;;16.48;7.88;;;4.40;99.90;;;5.81;70.93;101794.00;4838685;29;20028;-82
2021/04/16 06:13:39;;;;;;;16.52;8.15;;;4.40;99.90;;;6.08;70.82;101800.84;4831889;29;20030;-81
2021/04/16 06:16:08;;;;;;;15.65;7.35;;;4.60;99.90;;;6.34;69.69;101799.34;4832312;29;20030;-84
2021/04/16 06:18:35;;;;;;;21.63;7.93;;;4.80;99.90;;;6.65;68.36;101802.41;4817156;29;20034;-81
2021/04/16 06:21:05;;;;;;;14.27;6.72;;;5.10;99.90;;;7.10;66.91;101795.22;4832965;29;20424;-81
2021/04/16 06:23:33;;;;;;;11.95;6.40;;;5.50;99.90;;;7.58;65.09;101795.66;4833872;29;20030;-83
2021/04/16 06:26:09;;;;;;;;;;;;;;;;;;;;;
2021/04/16 06:28:36;;;;;;;13.25;6.72;;;6.20;99.90;;;8.32;62.39;101802.59;4833005;29;20101;-82
2021/04/16 06:31:02;;;;;;;19.02;7.30;;;6.60;99.90;;;8.65;60.65;101790.06;4836767;29;20487;-82
2021/04/16 06:33:33;;;;;;;12.48;7.05;;;6.90;99.90;;;8.76;60.42;101777.53;4838633;29;20034;-83
2021/04/16 06:36:06;;;;;;;13.57;6.03;;;7.10;99.90;;;8.74;59.15;101779.81;4823499;29;20495;-82
2021/04/16 06:38:43;;;;;;;14.60;5.72;;;7.20;99.90;;;8.78;59.28;101775.25;4821765;29;20038;-82
2021/04/16 06:41:32;;;;;;;11.95;6.43;;;7.20;99.90;;;9.09;58.52;101775.22;4838041;29;20038;-83
2021/04/16 06:44:27;;;;;;;13.45;6.32;;;7.40;99.90;;;9.20;56.82;101770.19;4816831;29;20038;-83
2021/04/16 06:47:10;;;;;;;18.40;7.05;;;7.60;99.90;;;9.22;56.86;101773.47;4817177;29;20499;-83
2021/04/16 06:49:41;;;;;;;17.95;7.72;;;7.70;99.90;;;9.35;56.77;101770.59;4831573;29;20039;-84
2021/04/16 06:52:35;;;;;;;13.63;6.45;;;7.80;99.90;;;9.68;56.22;101759.03;4818899;29;20046;-83
2021/04/16 06:55:32;;;;;;;14.82;7.18;;;8.00;99.90;;;9.76;55.85;101761.03;4819667;29;20562;-82
2021/04/16 06:58:19;;;;;;;15.77;7.55;;;8.10;99.90;;;9.66;55.78;101761.31;4817896;29;20038;-83
2021/04/16 07:01:21;;;;;;;17.40;7.00;;;8.10;99.90;;;9.44;55.97;101765.03;4817243;29;20030;-83
2021/04/16 07:04:16;;;;;;;19.38;7.65;;;8.20;99.90;;;9.44;55.86;101765.03;4831159;29;20034;-82
2021/04/16 07:06:49;;;;;;;16.42;7.80;;;8.10;99.90;;;9.37;56.01;101762.75;4815819;29;20486;-84
2021/04/16 07:09:26;;;;;;;20.27;8.35;;;8.10;99.90;;;9.68;55.66;101770.19;4812001;29;20042;-84
2021/04/16 07:12:28;;;;;;;15.52;6.78;;;8.30;99.90;;;9.81;55.13;101753.31;4813502;29;20114;-84
2021/04/16 07:14:59;;;;;;;16.30;7.65;;;8.20;99.90;;;9.78;55.20;101755.94;4817942;29;20046;-82
2021/04/16 07:17:40;;;;;;;11.10;5.93;;;8.30;99.90;;;9.71;54.52;101769.53;4828518;29;20042;-81
2021/04/16 07:20:13;;;;;;;15.00;8.48;;;8.30;99.90;;;9.96;54.14;101775.16;4836361;29;20318;-84
2021/04/16 07:22:55;;;;;;;16.45;10.20;;;8.50;99.90;;;10.34;53.97;101777.34;4842505;29;20086;-83
2021/04/16 07:25:41;;;;;;;11.48;6.22;;;8.70;99.90;;;10.93;51.78;101778.38;4836714;29;20455;-84
2021/04/16 07:28:13;;;;;;;11.80;6.20;;;9.20;99.90;;;11.33;49.93;101771.34;4831957;29;20046;-83
2021/04/16 07:30:49;;;;;;;11.30;5.97;;;9.60;99.90;;;11.67;49.75;101772.28;4829858;29;20459;-83
2021/04/16 07:33:42;;;;;;;13.57;6.45;;;10.00;99.90;;;11.63;48.36;101774.94;4829694;29;20058;-84
2021/04/16 07:36:56;;;;;;;9.25;5.22;;;10.10;96.70;;;11.39;49.62;101780.34;4814361;29;20034;-82
2021/04/16 07:39:36;;;;;;;14.80;5.55;;;9.90;96.70;;;11.98;48.57;101779.19;4829051;29;20058;-84
2021/04/16 07:42:12;;;;;;;14.63;4.78;;;10.20;97.30;;;12.32;45.98;101780.09;4831321;29;20526;-84
2021/04/16 07:45:15;;;;;;;8.23;4.80;;;10.50;91.40;;;12.20;46.72;101780.03;4830308;29;20046;-83
2021/04/16 07:47:41;;;;;;;7.28;4.95;;;10.50;90.60;;;12.24;45.33;101784.59;4814019;29;20030;-83
2021/04/16 07:50:27;;;;;;;7.65;4.03;;;10.50;87.30;;;12.86;44.95;101790.13;4829834;29;20041;-82
2021/04/16 07:52:54;;;;;;;11.65;4.57;;;10.90;86.50;;;13.00;43.22;101789.81;4811300;29;20054;-84
2021/04/16 07:55:22;;;;;;;6.47;4.45;;;11.30;80.60;;;13.24;42.54;101786.22;4797763;29;20038;-83
2021/04/16 07:57:50;;;;;;;7.03;3.70;;;11.50;77.60;;;13.30;42.89;101790.44;4808325;29;20030;-83
2021/04/16 08:00:22;;;;;;;9.75;4.47;;;11.50;77.60;;;12.94;43.65;101785.59;4835206;29;20043;-84
2021/04/16 08:03:02;;;;;;;6.40;4.22;;;11.20;78.20;;;12.63;44.22;101786.88;4828598;29;20030;-84
2021/04/16 08:05:51;;;;;;;6.57;3.97;;;10.90;79.60;;;11.65;45.83;101778.25;4814966;29;20026;-82
2021/04/16 08:08:30;;;;;;;9.70;3.92;;;10.30;81.80;;;11.77;44.86;101772.75;4832076;29;20034;-85
2021/04/16 08:10:59;;;;;;;6.47;3.58;;;10.20;82.20;;;12.54;44.14;101780.53;4815454;29;20030;-82
2021/04/16 08:13:32;;;;;;;6.15;3.33;;;10.60;80.30;;;13.11;40.92;101783.41;4818521;29;20075;-85
2021/04/16 08:16:40;;;;;;;5.93;3.25;;;11.10;75.60;;;12.81;41.65;101779.09;4813971;29;20034;-84
2021/04/16 08:19:18;;;;;;;10.43;3.58;;;11.20;73.80;;;12.92;41.72;101785.91;4754499;30;20048;-83
2021/04/16 08:21:55;;;;;;;8.18;3.80;;;11.30;74.10;;;13.32;40.28;101790.94;4808157;29;20046;-83
2021/04/16 08:24:33;;;;;;;5.25;3.03;;;11.60;72.00;;;12.47;40.92;101780.28;4824711;29;20327;-84
2021/04/16 08:27:45;;;;;;;8.77;3.50;;;11.10;70.90;;;11.93;42.99;101776.59;4818748;29;20038;-84
2021/04/16 08:30:57;;;;;;;5.22;3.40;;;10.60;74.10;;;11.38;44.72;101776.72;4827329;29;20435;-83
2021/04/16 08:33:42;;;;;;;8.70;3.58;;;10.10;75.90;;;11.26;45.98;101782.22;4809756;29;20030;-82
2021/04/16 08:36:34;;;;;;;8.10;4.18;;;9.90;78.90;;;11.22;44.53;101774.81;4814199;29;20040;-84
2021/04/16 08:39:29;;;;;;;5.95;3.35;;;9.80;77.80;;;11.40;44.96;101774.41;4829596;29;20034;-83
2021/04/16 08:42:03;;;;;;;8.63;4.03;;;9.90;78.60;;;11.31;43.89;101770.84;4829725;29;20086;-82
2021/04/16 08:44:40;;;;;;;6.47;3.45;;;10.00;76.60;;;11.33;44.56;101765.75;4830854;29;20065;-86
2021/04/16 08:47:27;;;;;;;6.22;2.72;;;9.90;76.40;;;11.49;44.29;101766.78;4830005;29;20038;-84
2021/04/16 08:49:55;;;;;;;6.13;3.13;;;10.00;76.40;;;11.31;44.50;101767.22;4830873;29;20050;-82
2021/04/16 08:52:37;;;;;;;4.75;2.92;;;9.90;76.90;;;11.46;43.45;101777.84;4829824;29;20049;-84
2021/04/16 08:55:26;;;;;;;10.23;3.17;;;10.00;75.00;;;11.82;42.05;101766.94;4842426;29;20046;-80
2021/04/16 08:58:00;;;;;;;6.38;2.90;;;10.30;73.40;;;13.15;40.78;101767.53;4832803;29;20133;-82
2021/04/16 09:00:37;;;;;;;3.45;2.53;;;11.20;72.40;;;14.31;36.80;101771.63;4813863;29;20098;-84
2021/04/16 09:03:16;;;;;;;5.07;2.40;;;12.10;65.80;;;14.33;35.92;101772.06;4829451;29;20026;-83
2021/04/16 09:06:04;;;;;;;3.92;2.13;;;12.50;62.10;;;13.75;35.64;101768.69;4829786;29;20114;-83
2021/04/16 09:08:48;;;;;;;6.40;2.30;;;12.30;60.70;;;13.88;35.81;101766.69;4811846;29;20039;-84
2021/04/16 09:11:45;;;;;;;4.65;3.03;;;12.30;60.40;;;13.71;35.83;101760.16;4812381;29;20030;-84
2021/04/16 09:14:23;;;;;;;6.30;2.65;;;12.30;59.60;;;13.90;35.33;101753.91;4828682;29;20080;-83
2021/04/16 09:16:57;;;;;;;5.47;3.05;;;12.40;59.20;;;14.11;35.10;101751.78;4811501;29;20351;-81
2021/04/16 09:19:23;;;;;;;6.57;2.30;;;12.50;59.10;;;13.78;36.41;101753.13;4811924;29;20085;-84
2021/04/16 09:22:04;;;;;;;5.13;2.10;;;12.30;60.00;;;13.85;35.79;101762.59;4811355;29;20495;-85
2021/04/16 09:24:57;;;;;;;4.35;1.95;;;12.30;59.50;;;14.43;35.09;101751.94;4828607;29;20030;-82
2021/04/16 09:27:26;;;;;;;6.22;2.33;;;12.70;59.20;;;15.19;32.80;101743.16;4804770;29;20676;-84
2021/04/16 09:30:31;;;;;;;4.95;2.20;;;13.30;57.10;;;14.18;33.56;101735.16;4828772;29;20039;-83
2021/04/16 09:33:36;;;;;;;5.93;1.92;;;13.00;55.40;;;14.12;34.13;101744.19;4812092;29;20045;-84
2021/04/16 09:36:26;;;;;;;4.22;1.52;;;12.80;56.30;;;14.19;34.40;101738.78;4815825;29;20133;-84
2021/04/16 09:38:52;;;;;;;3.15;1.90;;;12.60;56.30;;;14.39;32.97;101742.56;4814386;29;20750;-85
2021/04/16 09:41:24;;;;;;;2.90;1.55;;;12.70;55.10;;;14.54;33.17;101739.84;4828115;29;20055;-84
2021/04/16 09:44:20;;;;;;;4.88;1.92;;;12.90;55.40;;;14.89;32.49;101734.38;4813136;29;20026;-86
2021/04/16 09:46:49;;;;;;;4.60;2.10;;;13.30;54.60;;;13.95;33.13;101736.84;4827822;29;20034;-83
2021/04/16 09:49:24;;;;;;;8.35;2.65;;;12.80;54.40;;;13.60;34.60;101742.19;4812982;29;20034;-84
2021/04/16 09:51:56;;;;;;;3.58;1.98;;;12.40;56.00;;;13.92;34.23;101733.91;4810269;29;20027;-83
2021/04/16 09:54:21;;;;;;;4.63;2.20;;;12.40;57.20;;;13.99;33.61;101743.41;4830403;29;20038;-84
2021/04/16 09:57:03;;;;;;;3.40;1.92;;;12.50;55.40;;;14.30;33.60;101742.69;4812638;29;20042;-84
2021/04/16 10:00:29;;;;;;;4.88;1.77;;;12.70;55.60;;;14.44;33.31;101736.72;4830895;29;20069;-84
2021/04/16 10:03:34;;;;;;;5.15;2.30;;;12.90;55.30;;;14.30;33.78;101727.81;4829358;29;20034;-83
2021/04/16 10:06:25;;;;;;;4.72;2.00;;;12.90;55.50;;;13.66;34.78;101732.34;4828788;29;20031;-86
2021/04/16 10:09:16;;;;;;;4.38;2.15;;;12.60;55.80;;;13.51;34.84;101730.25;4828796;29;20031;-84
2021/04/16 10:11:54;;;;;;;5.90;2.00;;;12.20;56.00;;;13.40;35.70;101733.88;4823173;29;20041;-82
2021/04/16 10:14:24;;;;;;;3.13;1.75;;;12.10;56.90;;;13.37;34.60;101726.97;4846671;29;20018;-80
2021/04/16 10:17:17;;;;;;;6.75;2.08;;;12.00;55.60;;;13.59;34.57;101736.91;4826004;29;20046;-83
2021/04/16 10:20:09;;;;;;;4.68;1.90;;;12.10;56.10;;;13.99;34.52;101726.53;4840122;29;20042;-83
2021/04/16 10:22:38;;;;;;;4.65;1.75;;;12.50;56.30;;;14.38;32.32;101730.53;4840977;29;20035;-82
2021/04/16 10:33:11;;;;;;;5.55;1.63;;;12.60;53.60;;;13.93;33.98;101724.34;4775888;30;20103;-86
2021/04/16 10:36:01;;;;;;;2.38;1.60;;;12.40;54.70;;;14.20;33.62;101713.13;4832080;29;20045;-84
2021/04/16 11:07:50;;;;;;;4.63;2.00;;;12.10;56.20;;;14.01;34.47;101695.28;4830786;29;20063;-85
2021/04/16 12:39:15;;;;;;;4.05;2.33;;;14.60;52.10;;;15.55;32.76;101623.81;4836283;29;20024;-81
2021/04/16 12:41:47;;;;;;;2.72;2.10;;;14.20;52.40;;;15.38;33.69;101618.59;4906198;24;20074;-82
2021/04/16 12:44:38;;;;;;;3.10;2.17;;;13.90;54.00;;;15.72;31.94;101615.78;4813189;29;20039;-84
2021/04/16 12:47:19;;;;;;;4.80;2.47;;;14.00;52.50;;;15.22;33.60;101615.78;4814422;29;20082;-83
2021/04/16 12:49:45;;;;;;;4.43;2.08;;;13.80;53.30;;;14.99;33.30;101603.59;4813284;29;20034;-83
2021/04/16 12:52:15;;;;;;;3.92;2.15;;;13.80;53.30;;;14.95;32.50;101605.50;4829762;29;20037;-83
2021/04/16 12:54:44;;;;;;;3.10;2.03;;;13.70;51.70;;;15.25;32.62;101598.97;4811814;29;20091;-83